sensor_id;sensor_type;location;lat;lon;timestamp;pressure;altitude;pressure_sealevel;temperature;humidity
41862;BME280;27537;57.134;-2.136;2023-05-02T00:01:18;101821.09;;;5.60;100.00
41862;BME280;27537;57.134;-2.136;2023-05-02T00:03:45;101796.81;;;5.39;100.00
41862;BME280;27537;57.134;-2.136;2023-05-02T00:06:12;101833.22;;;5.55;100.00
41862;BME280;27537;57.134;-2.136;2023-05-02T00:08:39;101795.94;;;5.45;100.00
41862;BME280;27537;57.134;-2.136;2023-05-02T00:11:06;101824.56;;;5.65;100.00
41862;BME280;27537;57.134;-2.136;2023-05-02T00:13:33;101853.13;;;5.85;100.00
41862;BME280;27537;57.134;-2.136;2023-05-02T00:16:00;101808.09;;;5.57;100.00
41862;BME280;27537;57.134;-2.136;2023-05-02T00:18:27;101863.53;;;5.86;100.00
41862;BME280;27537;57.134;-2.136;2023-05-02T00:20:54;101859.19;;;5.68;100.00
41862;BME280;27537;57.134;-2.136;2023-05-02T00:23:22;101792.47;;;5.30;100.00
41862;BME280;27537;57.134;-2.136;2023-05-02T00:25:49;101822.81;;;5.65;100.00
41862;BME280;27537;57.134;-2.136;2023-05-02T00:28:16;101814.13;;;5.45;100.00
41862;BME280;27537;57.134;-2.136;2023-05-02T00:30:44;101811.53;;;5.57;100.00
41862;BME280;27537;57.134;-2.136;2023-05-02T00:33:12;101838.41;;;5.81;100.00
41862;BME280;27537;57.134;-2.136;2023-05-02T00:35:40;101817.63;;;5.64;100.00
41862;BME280;27537;57.134;-2.136;2023-05-02T00:38:07;101788.16;;;5.42;100.00
41862;BME280;27537;57.134;-2.136;2023-05-02T00:40:47;101860.94;;;5.85;100.00
41862;BME280;27537;57.134;-2.136;2023-05-02T00:43:15;101834.06;;;5.92;100.00
41862;BME280;27537;57.134;-2.136;2023-05-02T00:45:43;101860.94;;;6.06;100.00
41862;BME280;27537;57.134;-2.136;2023-05-02T00:48:11;101842.72;;;5.93;100.00
41862;BME280;27537;57.134;-2.136;2023-05-02T00:50:40;101873.94;;;6.03;100.00
41862;BME280;27537;57.134;-2.136;2023-05-02T00:53:08;101866.13;;;6.16;100.00
41862;BME280;27537;57.134;-2.136;2023-05-02T00:55:35;101816.75;;;5.88;100.00
41862;BME280;27537;57.134;-2.136;2023-05-02T00:58:05;101859.19;;;6.21;100.00
41862;BME280;27537;57.134;-2.136;2023-05-02T01:09:36;101860.06;;;6.27;100.00
41862;BME280;27537;57.134;-2.136;2023-05-02T01:12:27;101863.53;;;6.14;100.00
41862;BME280;27537;57.134;-2.136;2023-05-02T01:14:57;101848.84;;;6.04;100.00
41862;BME280;27537;57.134;-2.136;2023-05-02T01:17:28;101821.06;;;5.81;100.00
41862;BME280;27537;57.134;-2.136;2023-05-02T01:20:02;101869.63;;;6.10;100.00
41862;BME280;27537;57.134;-2.136;2023-05-02T01:22:30;101863.56;;;6.08;100.00
41862;BME280;27537;57.134;-2.136;2023-05-02T01:25:47;101870.47;;;6.26;100.00
41862;BME280;27537;57.134;-2.136;2023-05-02T01:28:20;101872.19;;;6.38;100.00
41862;BME280;27537;57.134;-2.136;2023-05-02T01:30:51;101839.25;;;6.11;100.00
41862;BME280;27537;57.134;-2.136;2023-05-02T01:33:21;101809.81;;;5.78;100.00
41862;BME280;27537;57.134;-2.136;2023-05-02T01:35:50;101851.41;;;6.05;100.00
41862;BME280;27537;57.134;-2.136;2023-05-02T01:38:18;101886.94;;;6.30;100.00
41862;BME280;27537;57.134;-2.136;2023-05-02T01:40:46;101888.69;;;6.14;100.00
41862;BME280;27537;57.134;-2.136;2023-05-02T01:43:17;101889.56;;;6.22;100.00
41862;BME280;27537;57.134;-2.136;2023-05-02T01:45:47;101879.13;;;6.19;100.00
41862;BME280;27537;57.134;-2.136;2023-05-02T01:48:16;101866.16;;;6.10;100.00
41862;BME280;27537;57.134;-2.136;2023-05-02T01:50:46;101899.09;;;6.20;100.00
41862;BME280;27537;57.134;-2.136;2023-05-02T01:53:14;101869.63;;;6.16;100.00
41862;BME280;27537;57.134;-2.136;2023-05-02T01:55:42;101911.19;;;6.33;100.00
41862;BME280;27537;57.134;-2.136;2023-05-02T01:58:11;101862.69;;;6.07;100.00
41862;BME280;27537;57.134;-2.136;2023-05-02T02:00:39;101854.03;;;5.99;100.00
41862;BME280;27537;57.134;-2.136;2023-05-02T02:03:08;101869.63;;;6.12;100.00
41862;BME280;27537;57.134;-2.136;2023-05-02T02:05:36;101872.19;;;6.05;100.00
41862;BME280;27537;57.134;-2.136;2023-05-02T02:08:05;101879.97;;;5.95;100.00
41862;BME280;27537;57.134;-2.136;2023-05-02T02:10:35;101870.50;;;6.04;100.00
41862;BME280;27537;57.134;-2.136;2023-05-02T02:13:13;101895.59;;;6.19;100.00
41862;BME280;27537;57.134;-2.136;2023-05-02T02:15:45;101862.66;;;5.89;100.00
41862;BME280;27537;57.134;-2.136;2023-05-02T02:18:18;101866.16;;;6.03;100.00
41862;BME280;27537;57.134;-2.136;2023-05-02T02:20:47;101906.00;;;6.19;100.00
41862;BME280;27537;57.134;-2.136;2023-05-02T02:23:26;101906.84;;;6.38;100.00
41862;BME280;27537;57.134;-2.136;2023-05-02T02:25:55;101882.63;;;6.12;100.00
41862;BME280;27537;57.134;-2.136;2023-05-02T02:28:23;101880.88;;;6.04;100.00
41862;BME280;27537;57.134;-2.136;2023-05-02T02:30:49;101884.34;;;6.06;100.00
41862;BME280;27537;57.134;-2.136;2023-05-02T02:33:17;101880.00;;;6.05;100.00
41862;BME280;27537;57.134;-2.136;2023-05-02T02:35:54;101893.88;;;6.26;100.00
41862;BME280;27537;57.134;-2.136;2023-05-02T02:40:56;101826.28;;;5.81;100.00
41862;BME280;27537;57.134;-2.136;2023-05-02T02:43:47;101906.88;;;6.41;100.00
41862;BME280;27537;57.134;-2.136;2023-05-02T02:49:26;101908.56;;;6.42;100.00
41862;BME280;27537;57.134;-2.136;2023-05-02T02:52:05;101889.53;;;6.34;100.00
41862;BME280;27537;57.134;-2.136;2023-05-02T02:54:49;101893.88;;;6.32;100.00
41862;BME280;27537;57.134;-2.136;2023-05-02T02:57:27;101910.31;;;6.40;100.00
41862;BME280;27537;57.134;-2.136;2023-05-02T03:00:24;101899.06;;;6.26;100.00
41862;BME280;27537;57.134;-2.136;2023-05-02T03:02:53;101893.00;;;6.05;100.00
41862;BME280;27537;57.134;-2.136;2023-05-02T03:05:21;101885.22;;;6.01;100.00
41862;BME280;27537;57.134;-2.136;2023-05-02T03:07:49;101895.63;;;6.15;100.00
41862;BME280;27537;57.134;-2.136;2023-05-02T03:10:16;101903.41;;;6.07;100.00
41862;BME280;27537;57.134;-2.136;2023-05-02T03:12:43;101873.06;;;5.94;100.00
41862;BME280;27537;57.134;-2.136;2023-05-02T03:18:09;101914.69;;;6.07;100.00
41862;BME280;27537;57.134;-2.136;2023-05-02T03:20:35;101870.47;;;5.83;100.00
41862;BME280;27537;57.134;-2.136;2023-05-02T03:23:02;101860.94;;;5.85;100.00
41862;BME280;27537;57.134;-2.136;2023-05-02T03:25:29;101870.50;;;5.97;100.00
41862;BME280;27537;57.134;-2.136;2023-05-02T03:27:56;101885.22;;;5.96;100.00
41862;BME280;27537;57.134;-2.136;2023-05-02T03:30:23;101833.22;;;5.79;100.00
41862;BME280;27537;57.134;-2.136;2023-05-02T03:32:50;101925.06;;;6.11;100.00
41862;BME280;27537;57.134;-2.136;2023-05-02T03:35:17;101886.06;;;5.90;100.00
41862;BME280;27537;57.134;-2.136;2023-05-02T03:37:44;101871.31;;;5.91;100.00
41862;BME280;27537;57.134;-2.136;2023-05-02T03:40:11;101871.38;;;5.99;100.00
41862;BME280;27537;57.134;-2.136;2023-05-02T03:42:38;101899.06;;;6.11;100.00
41862;BME280;27537;57.134;-2.136;2023-05-02T03:45:07;101884.38;;;6.11;100.00
41862;BME280;27537;57.134;-2.136;2023-05-02T03:47:34;101875.69;;;6.04;100.00
41862;BME280;27537;57.134;-2.136;2023-05-02T03:50:01;101868.75;;;5.99;100.00
41862;BME280;27537;57.134;-2.136;2023-05-02T03:52:28;101872.22;;;5.98;100.00
41862;BME280;27537;57.134;-2.136;2023-05-02T03:54:56;101919.88;;;6.23;100.00
41862;BME280;27537;57.134;-2.136;2023-05-02T03:57:23;101834.06;;;5.66;100.00
41862;BME280;27537;57.134;-2.136;2023-05-02T03:59:49;101821.94;;;5.59;100.00
41862;BME280;27537;57.134;-2.136;2023-05-02T04:02:16;101889.56;;;6.00;100.00
41862;BME280;27537;57.134;-2.136;2023-05-02T04:04:43;101911.22;;;6.07;100.00
41862;BME280;27537;57.134;-2.136;2023-05-02T04:07:10;101889.56;;;6.00;100.00
41862;BME280;27537;57.134;-2.136;2023-05-02T04:09:43;101912.06;;;6.24;100.00
41862;BME280;27537;57.134;-2.136;2023-05-02T04:12:10;101867.03;;;6.01;100.00
41862;BME280;27537;57.134;-2.136;2023-05-02T04:14:37;101860.94;;;5.88;100.00
41862;BME280;27537;57.134;-2.136;2023-05-02T04:17:04;101867.00;;;5.88;100.00
41862;BME280;27537;57.134;-2.136;2023-05-02T04:19:30;101900.84;;;6.16;100.00
41862;BME280;27537;57.134;-2.136;2023-05-02T04:21:57;101866.97;;;5.95;100.00
41862;BME280;27537;57.134;-2.136;2023-05-02T04:24:24;101910.34;;;6.31;100.00
41862;BME280;27537;57.134;-2.136;2023-05-02T04:26:51;101885.19;;;6.22;100.00
41862;BME280;27537;57.134;-2.136;2023-05-02T04:29:17;101927.66;;;6.49;100.00
41862;BME280;27537;57.134;-2.136;2023-05-02T04:31:44;101882.63;;;6.29;100.00
41862;BME280;27537;57.134;-2.136;2023-05-02T04:34:11;101881.72;;;6.30;100.00
41862;BME280;27537;57.134;-2.136;2023-05-02T04:36:38;101913.75;;;6.56;100.00
41862;BME280;27537;57.134;-2.136;2023-05-02T04:39:04;101926.78;;;6.64;100.00
41862;BME280;27537;57.134;-2.136;2023-05-02T04:41:33;101937.16;;;6.69;100.00
41862;BME280;27537;57.134;-2.136;2023-05-02T04:44:00;101886.91;;;6.45;100.00
41862;BME280;27537;57.134;-2.136;2023-05-02T04:46:26;101903.34;;;6.61;100.00
41862;BME280;27537;57.134;-2.136;2023-05-02T04:48:53;101873.03;;;6.41;100.00
41862;BME280;27537;57.134;-2.136;2023-05-02T04:51:20;101879.94;;;6.56;100.00
41862;BME280;27537;57.134;-2.136;2023-05-02T04:53:47;101914.59;;;6.71;100.00
41862;BME280;27537;57.134;-2.136;2023-05-02T04:56:14;101905.97;;;6.61;100.00
41862;BME280;27537;57.134;-2.136;2023-05-02T04:58:40;101908.50;;;6.76;100.00
41862;BME280;27537;57.134;-2.136;2023-05-02T05:01:07;101911.94;;;6.83;100.00
41862;BME280;27537;57.134;-2.136;2023-05-02T05:03:34;101896.38;;;6.80;100.00
41862;BME280;27537;57.134;-2.136;2023-05-02T05:06:01;101897.22;;;6.80;100.00
41862;BME280;27537;57.134;-2.136;2023-05-02T05:08:28;101906.75;;;6.84;100.00
41862;BME280;27537;57.134;-2.136;2023-05-02T05:10:55;101917.19;;;6.80;100.00
41862;BME280;27537;57.134;-2.136;2023-05-02T05:13:22;101947.53;;;6.84;100.00
41862;BME280;27537;57.134;-2.136;2023-05-02T05:15:48;101911.94;;;6.81;100.00
41862;BME280;27537;57.134;-2.136;2023-05-02T05:18:15;101918.91;;;6.81;100.00
41862;BME280;27537;57.134;-2.136;2023-05-02T05:20:42;101943.16;;;7.00;100.00
41862;BME280;27537;57.134;-2.136;2023-05-02T05:23:09;101948.38;;;7.01;100.00
41862;BME280;27537;57.134;-2.136;2023-05-02T05:25:35;101933.63;;;6.88;100.00
41862;BME280;27537;57.134;-2.136;2023-05-02T05:28:02;101917.16;;;6.81;100.00
41862;BME280;27537;57.134;-2.136;2023-05-02T05:30:29;101933.66;;;6.83;100.00
41862;BME280;27537;57.134;-2.136;2023-05-02T05:32:56;101921.50;;;6.76;100.00
41862;BME280;27537;57.134;-2.136;2023-05-02T05:35:29;101951.81;;;6.97;100.00
41862;BME280;27537;57.134;-2.136;2023-05-02T05:37:57;101899.88;;;6.65;100.00
41862;BME280;27537;57.134;-2.136;2023-05-02T05:40:24;101929.31;;;6.79;100.00
41862;BME280;27537;57.134;-2.136;2023-05-02T05:42:50;101965.69;;;7.01;100.00
41862;BME280;27537;57.134;-2.136;2023-05-02T05:45:17;101932.75;;;6.97;100.00
41862;BME280;27537;57.134;-2.136;2023-05-02T05:47:45;101945.72;;;7.06;100.00
41862;BME280;27537;57.134;-2.136;2023-05-02T05:50:12;101943.94;;;7.20;100.00
41862;BME280;27537;57.134;-2.136;2023-05-02T05:52:38;101964.75;;;7.30;100.00
41862;BME280;27537;57.134;-2.136;2023-05-02T05:55:20;101986.28;;;7.63;100.00
41862;BME280;27537;57.134;-2.136;2023-05-02T05:57:50;101962.91;;;7.49;100.00
41862;BME280;27537;57.134;-2.136;2023-05-02T06:00:17;101982.00;;;7.52;100.00
41862;BME280;27537;57.134;-2.136;2023-05-02T06:02:44;101984.53;;;7.63;100.00
41862;BME280;27537;57.134;-2.136;2023-05-02T06:05:11;101942.03;;;7.52;100.00
41862;BME280;27537;57.134;-2.136;2023-05-02T06:07:38;101959.38;;;7.64;100.00
41862;BME280;27537;57.134;-2.136;2023-05-02T06:10:05;101940.34;;;7.48;100.00
41862;BME280;27537;57.134;-2.136;2023-05-02T06:12:32;101977.47;;;7.87;100.00
41862;BME280;27537;57.134;-2.136;2023-05-02T06:14:59;102005.16;;;8.08;100.00
41862;BME280;27537;57.134;-2.136;2023-05-02T06:17:26;102013.78;;;8.16;100.00
41862;BME280;27537;57.134;-2.136;2023-05-02T06:19:53;101986.06;;;8.03;100.00
41862;BME280;27537;57.134;-2.136;2023-05-02T06:22:19;101979.16;;;7.95;100.00
41862;BME280;27537;57.134;-2.136;2023-05-02T06:24:46;101919.25;;;7.86;100.00
41862;BME280;27537;57.134;-2.136;2023-05-02T06:27:13;101973.72;;;8.23;100.00
41862;BME280;27537;57.134;-2.136;2023-05-02T06:29:39;101948.53;;;8.17;100.00
41862;BME280;27537;57.134;-2.136;2023-05-02T06:32:06;101980.66;;;8.27;100.00
41862;BME280;27537;57.134;-2.136;2023-05-02T06:34:33;101966.59;;;8.48;100.00
41862;BME280;27537;57.134;-2.136;2023-05-02T06:37:00;102001.63;;;9.11;100.00
41862;BME280;27537;57.134;-2.136;2023-05-02T06:39:26;101960.81;;;9.01;100.00
41862;BME280;27537;57.134;-2.136;2023-05-02T06:41:56;101972.63;;;9.95;100.00
41862;BME280;27537;57.134;-2.136;2023-05-02T06:44:24;101953.16;;;10.14;100.00
41862;BME280;27537;57.134;-2.136;2023-05-02T06:46:50;101930.50;;;10.64;100.00
41862;BME280;27537;57.134;-2.136;2023-05-02T06:49:17;102006.56;;;11.49;100.00
41862;BME280;27537;57.134;-2.136;2023-05-02T06:51:44;102000.25;;;11.15;100.00
41862;BME280;27537;57.134;-2.136;2023-05-02T06:54:10;102012.94;;;11.37;100.00
41862;BME280;27537;57.134;-2.136;2023-05-02T06:56:37;101951.13;;;10.80;100.00
41862;BME280;27537;57.134;-2.136;2023-05-02T06:59:04;101987.31;;;11.08;100.00
41862;BME280;27537;57.134;-2.136;2023-05-02T07:01:31;101977.31;;;10.81;100.00
41862;BME280;27537;57.134;-2.136;2023-05-02T07:03:57;101961.44;;;10.91;100.00
41862;BME280;27537;57.134;-2.136;2023-05-02T07:06:24;102006.75;;;11.82;100.00
41862;BME280;27537;57.134;-2.136;2023-05-02T07:08:52;101995.97;;;11.95;100.00
41862;BME280;27537;57.134;-2.136;2023-05-02T07:11:19;101945.59;;;12.15;100.00
41862;BME280;27537;57.134;-2.136;2023-05-02T07:13:47;101973.69;;;12.12;100.00
41862;BME280;27537;57.134;-2.136;2023-05-02T07:16:13;101958.94;;;12.08;100.00
41862;BME280;27537;57.134;-2.136;2023-05-02T07:18:41;101980.41;;;12.24;100.00
41862;BME280;27537;57.134;-2.136;2023-05-02T07:21:08;101994.84;;;12.06;100.00
41862;BME280;27537;57.134;-2.136;2023-05-02T07:23:34;101968.34;;;12.17;100.00
41862;BME280;27537;57.134;-2.136;2023-05-02T07:26:01;101964.56;;;11.89;100.00
41862;BME280;27537;57.134;-2.136;2023-05-02T07:28:31;101954.59;;;11.66;100.00
41862;BME280;27537;57.134;-2.136;2023-05-02T07:30:58;101998.91;;;12.53;100.00
41862;BME280;27537;57.134;-2.136;2023-05-02T07:33:25;102020.16;;;12.44;100.00
41862;BME280;27537;57.134;-2.136;2023-05-02T07:35:51;102001.25;;;12.97;100.00
41862;BME280;27537;57.134;-2.136;2023-05-02T07:38:18;101992.50;;;12.98;95.12
41862;BME280;27537;57.134;-2.136;2023-05-02T07:40:45;101996.72;;;12.37;89.20
41862;BME280;27537;57.134;-2.136;2023-05-02T07:43:12;102037.03;;;13.03;100.00
41862;BME280;27537;57.134;-2.136;2023-05-02T07:45:39;102039.63;;;13.04;94.21
41862;BME280;27537;57.134;-2.136;2023-05-02T07:48:06;102033.28;;;13.11;97.74
41862;BME280;27537;57.134;-2.136;2023-05-02T07:50:33;101994.81;;;12.76;91.55
41862;BME280;27537;57.134;-2.136;2023-05-02T07:52:59;102041.22;;;13.43;100.00
41862;BME280;27537;57.134;-2.136;2023-05-02T07:55:26;102017.22;;;12.91;89.21
41862;BME280;27537;57.134;-2.136;2023-05-02T07:57:53;102039.13;;;12.57;92.49
41862;BME280;27537;57.134;-2.136;2023-05-02T08:00:20;102027.28;;;12.75;89.78
41862;BME280;27537;57.134;-2.136;2023-05-02T08:02:46;101986.41;;;11.91;90.23
41862;BME280;27537;57.134;-2.136;2023-05-02T08:05:13;102020.88;;;12.15;93.10
41862;BME280;27537;57.134;-2.136;2023-05-02T08:07:41;101986.56;;;12.90;98.19
41862;BME280;27537;57.134;-2.136;2023-05-02T08:10:09;102048.22;;;13.11;90.44
41862;BME280;27537;57.134;-2.136;2023-05-02T08:12:40;102056.19;;;13.08;89.21
41862;BME280;27537;57.134;-2.136;2023-05-02T08:15:09;102009.84;;;13.04;91.32
41862;BME280;27537;57.134;-2.136;2023-05-02T08:17:37;102006.91;;;13.15;94.30
41862;BME280;27537;57.134;-2.136;2023-05-02T08:20:04;102038.47;;;13.15;94.02
41862;BME280;27537;57.134;-2.136;2023-05-02T08:22:31;102034.50;;;13.00;86.59
41862;BME280;27537;57.134;-2.136;2023-05-02T08:24:58;102021.09;;;13.09;84.03
41862;BME280;27537;57.134;-2.136;2023-05-02T08:27:25;102023.19;;;12.63;83.40
41862;BME280;27537;57.134;-2.136;2023-05-02T08:29:51;102049.19;;;12.74;89.63
41862;BME280;27537;57.134;-2.136;2023-05-02T08:32:18;102072.16;;;12.66;84.02
41862;BME280;27537;57.134;-2.136;2023-05-02T08:34:45;102078.28;;;12.68;89.10
41862;BME280;27537;57.134;-2.136;2023-05-02T08:37:11;102071.50;;;12.22;89.13
41862;BME280;27537;57.134;-2.136;2023-05-02T08:39:38;102060.09;;;11.81;88.48
41862;BME280;27537;57.134;-2.136;2023-05-02T08:42:06;102041.94;;;12.12;100.00
41862;BME280;27537;57.134;-2.136;2023-05-02T08:44:33;102064.38;;;12.63;97.17
41862;BME280;27537;57.134;-2.136;2023-05-02T08:47:00;102041.81;;;12.54;95.41
41862;BME280;27537;57.134;-2.136;2023-05-02T08:49:30;102067.38;;;12.82;94.25
41862;BME280;27537;57.134;-2.136;2023-05-02T08:52:00;102079.91;;;12.72;92.80
41862;BME280;27537;57.134;-2.136;2023-05-02T08:54:27;102050.56;;;12.19;91.56
41862;BME280;27537;57.134;-2.136;2023-05-02T08:56:55;102048.44;;;12.69;95.44
41862;BME280;27537;57.134;-2.136;2023-05-02T08:59:22;101998.50;;;12.36;87.62
41862;BME280;27537;57.134;-2.136;2023-05-02T09:01:53;102052.66;;;12.75;90.09
41862;BME280;27537;57.134;-2.136;2023-05-02T09:04:23;102041.00;;;12.14;94.75
41862;BME280;27537;57.134;-2.136;2023-05-02T09:06:50;102009.00;;;12.36;95.39
41862;BME280;27537;57.134;-2.136;2023-05-02T09:09:17;102040.72;;;11.86;100.00
41862;BME280;27537;57.134;-2.136;2023-05-02T09:11:46;102034.13;;;12.09;100.00
41862;BME280;27537;57.134;-2.136;2023-05-02T09:14:14;102064.81;;;12.80;96.21
41862;BME280;27537;57.134;-2.136;2023-05-02T09:16:41;102027.09;;;12.48;96.34
41862;BME280;27537;57.134;-2.136;2023-05-02T09:19:09;102023.09;;;12.68;95.89
41862;BME280;27537;57.134;-2.136;2023-05-02T09:21:36;102075.63;;;12.68;92.07
41862;BME280;27537;57.134;-2.136;2023-05-02T09:24:19;102081.84;;;11.87;99.53
41862;BME280;27537;57.134;-2.136;2023-05-02T09:27:00;102073.03;;;12.66;99.91
41862;BME280;27537;57.134;-2.136;2023-05-02T09:29:32;102052.22;;;12.93;95.24
41862;BME280;27537;57.134;-2.136;2023-05-02T09:32:05;102056.31;;;12.69;96.04
41862;BME280;27537;57.134;-2.136;2023-05-02T09:34:32;102067.34;;;13.18;95.17
41862;BME280;27537;57.134;-2.136;2023-05-02T09:36:59;102065.13;;;13.01;91.96
41862;BME280;27537;57.134;-2.136;2023-05-02T09:39:27;102022.09;;;12.00;94.52
41862;BME280;27537;57.134;-2.136;2023-05-02T09:41:55;102057.53;;;12.57;97.16
41862;BME280;27537;57.134;-2.136;2023-05-02T09:44:27;102084.03;;;12.46;100.00
41862;BME280;27537;57.134;-2.136;2023-05-02T09:47:01;102040.38;;;11.63;100.00
41862;BME280;27537;57.134;-2.136;2023-05-02T09:49:39;102056.47;;;11.86;100.00
41862;BME280;27537;57.134;-2.136;2023-05-02T09:52:14;102091.00;;;12.47;100.00
41862;BME280;27537;57.134;-2.136;2023-05-02T09:54:42;102047.81;;;12.23;100.00
41862;BME280;27537;57.134;-2.136;2023-05-02T09:57:09;102086.44;;;11.77;100.00
41862;BME280;27537;57.134;-2.136;2023-05-02T09:59:38;102064.44;;;12.24;100.00
41862;BME280;27537;57.134;-2.136;2023-05-02T10:02:05;102080.56;;;12.44;100.00
41862;BME280;27537;57.134;-2.136;2023-05-02T10:04:35;102035.31;;;11.53;100.00
41862;BME280;27537;57.134;-2.136;2023-05-02T10:07:02;102050.88;;;12.41;100.00
41862;BME280;27537;57.134;-2.136;2023-05-02T10:09:31;102047.56;;;12.70;100.00
41862;BME280;27537;57.134;-2.136;2023-05-02T10:12:02;102048.16;;;13.14;100.00
41862;BME280;27537;57.134;-2.136;2023-05-02T10:14:40;102069.50;;;13.02;100.00
41862;BME280;27537;57.134;-2.136;2023-05-02T10:17:18;102060.03;;;12.96;97.56
41862;BME280;27537;57.134;-2.136;2023-05-02T10:22:21;102064.22;;;12.33;100.00
41862;BME280;27537;57.134;-2.136;2023-05-02T10:24:48;102089.41;;;12.42;100.00
41862;BME280;27537;57.134;-2.136;2023-05-02T10:27:15;102060.06;;;12.59;100.00
41862;BME280;27537;57.134;-2.136;2023-05-02T10:29:43;102048.13;;;11.69;100.00
41862;BME280;27537;57.134;-2.136;2023-05-02T10:32:10;102045.09;;;11.45;100.00
41862;BME280;27537;57.134;-2.136;2023-05-02T10:34:38;102092.34;;;10.97;100.00
41862;BME280;27537;57.134;-2.136;2023-05-02T10:37:06;102085.00;;;11.61;100.00
41862;BME280;27537;57.134;-2.136;2023-05-02T10:39:32;102065.78;;;11.61;100.00
41862;BME280;27537;57.134;-2.136;2023-05-02T10:42:01;102091.81;;;11.70;100.00
41862;BME280;27537;57.134;-2.136;2023-05-02T10:44:36;102088.75;;;11.02;100.00
41862;BME280;27537;57.134;-2.136;2023-05-02T10:52:36;102043.00;;;11.19;100.00
41862;BME280;27537;57.134;-2.136;2023-05-02T10:55:18;102099.47;;;11.37;100.00
41862;BME280;27537;57.134;-2.136;2023-05-02T11:00:29;102073.94;;;11.47;100.00
41862;BME280;27537;57.134;-2.136;2023-05-02T11:02:56;102095.09;;;10.91;100.00
41862;BME280;27537;57.134;-2.136;2023-05-02T11:05:24;102063.69;;;11.33;100.00
41862;BME280;27537;57.134;-2.136;2023-05-02T11:10:42;102074.19;;;11.33;100.00
41862;BME280;27537;57.134;-2.136;2023-05-02T11:13:11;102041.09;;;10.80;100.00
41862;BME280;27537;57.134;-2.136;2023-05-02T11:18:09;102099.41;;;11.40;100.00
41862;BME280;27537;57.134;-2.136;2023-05-02T11:20:43;102064.88;;;11.18;100.00
41862;BME280;27537;57.134;-2.136;2023-05-02T11:25:47;102112.31;;;11.04;100.00
41862;BME280;27537;57.134;-2.136;2023-05-02T11:28:38;102113.41;;;10.91;100.00
41862;BME280;27537;57.134;-2.136;2023-05-02T11:31:52;102122.25;;;10.83;100.00
41862;BME280;27537;57.134;-2.136;2023-05-02T11:34:00;102095.97;;;10.34;100.00
41862;BME280;27537;57.134;-2.136;2023-05-02T11:36:36;102101.63;;;10.63;100.00
41862;BME280;27537;57.134;-2.136;2023-05-02T11:39:03;102060.94;;;10.41;100.00
41862;BME280;27537;57.134;-2.136;2023-05-02T11:41:51;102119.88;;;10.70;100.00
41862;BME280;27537;57.134;-2.136;2023-05-02T11:44:20;102049.16;;;10.68;100.00
41862;BME280;27537;57.134;-2.136;2023-05-02T11:46:47;102071.00;;;11.17;100.00
41862;BME280;27537;57.134;-2.136;2023-05-02T11:49:14;102091.94;;;11.65;100.00
41862;BME280;27537;57.134;-2.136;2023-05-02T11:51:41;102117.25;;;11.66;100.00
41862;BME280;27537;57.134;-2.136;2023-05-02T11:54:08;102044.13;;;11.06;100.00
41862;BME280;27537;57.134;-2.136;2023-05-02T11:56:42;102101.56;;;11.19;100.00
41862;BME280;27537;57.134;-2.136;2023-05-02T11:59:09;102095.41;;;10.69;100.00
41862;BME280;27537;57.134;-2.136;2023-05-02T12:01:46;102066.50;;;10.77;100.00
41862;BME280;27537;57.134;-2.136;2023-05-02T12:04:13;102130.78;;;10.98;100.00
41862;BME280;27537;57.134;-2.136;2023-05-02T12:06:53;102113.03;;;10.59;100.00
41862;BME280;27537;57.134;-2.136;2023-05-02T12:09:20;102045.53;;;10.19;100.00
41862;BME280;27537;57.134;-2.136;2023-05-02T12:11:52;102079.66;;;10.15;100.00
41862;BME280;27537;57.134;-2.136;2023-05-02T12:14:28;102130.03;;;10.90;100.00
41862;BME280;27537;57.134;-2.136;2023-05-02T12:16:57;102135.41;;;10.82;100.00
41862;BME280;27537;57.134;-2.136;2023-05-02T12:19:24;102106.81;;;10.68;100.00
41862;BME280;27537;57.134;-2.136;2023-05-02T12:21:52;102118.19;;;10.66;100.00
41862;BME280;27537;57.134;-2.136;2023-05-02T12:24:19;102027.47;;;10.60;100.00
41862;BME280;27537;57.134;-2.136;2023-05-02T12:26:46;102098.69;;;11.33;100.00
41862;BME280;27537;57.134;-2.136;2023-05-02T12:29:15;102068.38;;;10.69;100.00
41862;BME280;27537;57.134;-2.136;2023-05-02T12:31:50;102096.84;;;10.89;100.00
41862;BME280;27537;57.134;-2.136;2023-05-02T12:34:33;102100.25;;;10.94;100.00
41862;BME280;27537;57.134;-2.136;2023-05-02T12:37:01;102106.47;;;10.88;100.00
41862;BME280;27537;57.134;-2.136;2023-05-02T12:39:35;102115.41;;;11.26;100.00
41862;BME280;27537;57.134;-2.136;2023-05-02T12:42:12;102142.75;;;11.11;100.00
41862;BME280;27537;57.134;-2.136;2023-05-02T12:44:41;102119.47;;;10.94;100.00
41862;BME280;27537;57.134;-2.136;2023-05-02T12:47:12;102151.59;;;11.06;100.00
41862;BME280;27537;57.134;-2.136;2023-05-02T12:52:20;102132.59;;;10.94;100.00
41862;BME280;27537;57.134;-2.136;2023-05-02T12:54:47;102131.19;;;10.72;100.00
41862;BME280;27537;57.134;-2.136;2023-05-02T12:57:24;102151.66;;;11.51;100.00
41862;BME280;27537;57.134;-2.136;2023-05-02T12:59:53;102134.06;;;11.56;100.00
41862;BME280;27537;57.134;-2.136;2023-05-02T13:02:20;102163.06;;;11.48;100.00
41862;BME280;27537;57.134;-2.136;2023-05-02T13:04:48;102126.84;;;11.20;100.00
41862;BME280;27537;57.134;-2.136;2023-05-02T13:07:15;102096.34;;;11.18;100.00
41862;BME280;27537;57.134;-2.136;2023-05-02T13:09:42;102113.41;;;11.40;100.00
41862;BME280;27537;57.134;-2.136;2023-05-02T13:12:09;102112.75;;;11.28;100.00
41862;BME280;27537;57.134;-2.136;2023-05-02T13:14:35;102119.19;;;11.58;100.00
41862;BME280;27537;57.134;-2.136;2023-05-02T13:17:02;102130.03;;;11.38;100.00
41862;BME280;27537;57.134;-2.136;2023-05-02T13:19:29;102143.06;;;11.44;100.00
41862;BME280;27537;57.134;-2.136;2023-05-02T13:21:57;102133.41;;;11.45;100.00
41862;BME280;27537;57.134;-2.136;2023-05-02T13:24:23;102143.97;;;11.42;100.00